Time;durP1;ratioP1;P1;durP2;ratioP2;P2;SDS_P1;SDS_P2;PMS_P1;PMS_P2;Temp;Humidity;BMP_temperature;BMP_pressure;BME280_temperature;BME280_humidity;BME280_pressure;Samples;Min_cycle;Max_cycle;Signal;HPM_P1;HPM_P2
2022/06/15 00:16:39;;;;;;;;;6.25;3.50;;;;;24.46;43.83;100997.88;5120832;27;45481;-56
2022/06/15 00:19:04;;;;;;;;;5.75;4.50;;;;;24.48;44.17;100987.03;5121315;27;45407;-55
2022/06/15 00:21:30;;;;;;;;;4.00;4.00;;;;;24.48;43.87;100990.56;5120134;27;57305;-56
2022/06/15 00:23:57;;;;;;;;;5.00;5.00;;;;;24.48;43.96;100989.72;5133545;27;45400;-57
2022/06/15 00:26:23;;;;;;;;;4.00;4.00;;;;;24.48;43.81;100987.88;5124026;27;47127;-58
2022/06/15 00:28:48;;;;;;;;;4.75;4.75;;;;;24.48;44.11;100990.56;5123816;27;45422;-57
2022/06/15 00:31:14;;;;;;;;;5.00;4.00;;;;;24.49;44.17;100994.94;5123006;27;45473;-54
2022/06/15 00:33:39;;;;;;;;;4.75;3.25;;;;;24.48;43.73;100993.22;5129844;27;45573;-54
2022/06/15 00:36:07;;;;;;;;;5.25;5.25;;;;;24.49;44.14;100994.06;5122785;27;74542;-55
2022/06/15 00:38:41;;;;;;;;;4.75;4.00;;;;;24.47;43.97;100993.34;5122304;27;45682;-56
2022/06/15 00:41:09;;;;;;;;;6.25;6.25;;;;;24.47;43.99;100996.91;5122011;27;46947;-56
2022/06/15 00:43:35;;;;;;;;;6.00;4.00;;;;;24.46;43.85;100997.88;5125766;27;45355;-56
2022/06/15 00:46:34;;;;;;;;;5.00;4.00;;;;;24.47;44.30;101009.41;5122320;27;46260;-55
2022/06/15 00:49:13;;;;;;;;;4.00;4.00;;;;;24.46;44.30;101000.53;5127515;27;45675;-56
2022/06/15 00:51:39;;;;;;;;;4.75;4.75;;;;;24.43;44.02;101004.31;5128522;27;45313;-56
2022/06/15 00:54:06;;;;;;;;;5.25;3.00;;;;;24.43;44.21;100998.97;5137031;27;45325;-56
2022/06/15 00:56:31;;;;;;;;;6.00;4.25;;;;;24.40;43.85;100993.88;5119902;27;46278;-53
2022/06/15 00:59:04;;;;;;;;;4.25;4.00;;;;;24.42;44.34;100999.94;5136750;27;45291;-55
2022/06/15 01:01:29;;;;;;;;;6.00;5.00;;;;;24.40;44.04;100996.53;5120585;27;45417;-54
2022/06/15 01:03:56;;;;;;;;;5.00;5.00;;;;;24.40;44.03;100996.53;5135674;27;45485;-55
2022/06/15 01:06:46;;;;;;;;;4.75;3.75;;;;;24.40;43.63;100995.66;5119830;27;69395;-56
2022/06/15 01:09:27;;;;;;;;;6.00;4.50;;;;;24.37;43.66;100988.75;5131093;27;45741;-54
2022/06/15 01:12:01;;;;;;;;;4.00;4.00;;;;;24.39;44.19;101004.69;5121749;27;45498;-53
2022/06/15 01:14:46;;;;;;;;;5.75;5.00;;;;;24.37;44.28;101007.47;5123855;27;45637;-55
2022/06/15 01:17:37;;;;;;;;;6.25;4.75;;;;;24.37;44.10;101006.63;5124796;27;46247;-55
2022/06/15 01:20:05;;;;;;;;;3.75;3.00;;;;;24.36;44.10;100999.56;5132924;27;45728;-56
2022/06/15 01:22:59;;;;;;;;;3.75;2.75;;;;;24.34;43.86;100997.03;5119956;27;45499;-56
2022/06/15 01:25:44;;;;;;;;;4.50;3.75;;;;;24.34;44.09;100998.84;5131997;27;45573;-55
2022/06/15 01:28:37;;;;;;;;;6.50;5.00;;;;;24.32;44.21;100992.78;5111661;27;46317;-53
2022/06/15 01:31:08;;;;;;;;;8.50;5.00;;;;;24.31;44.19;100994.63;5111096;27;45674;-56
2022/06/15 01:33:39;;;;;;;;;6.25;4.00;;;;;24.31;44.21;100993.75;5114359;27;45369;-55
2022/06/15 01:36:25;;;;;;;;;5.25;5.25;;;;;24.31;44.21;100991.06;5111621;27;45408;-55
2022/06/15 01:39:00;;;;;;;;;5.75;5.00;;;;;24.30;43.98;100992.06;5114895;27;46233;-55
2022/06/15 01:41:46;;;;;;;;;4.50;4.00;;;;;24.29;44.20;100998.38;5110263;27;45656;-55
2022/06/15 01:44:18;;;;;;;;;4.75;3.50;;;;;24.28;44.28;100986.84;5118536;27;45405;-54
2022/06/15 01:46:46;;;;;;;;;3.25;3.25;;;;;24.28;44.15;100989.50;5117395;27;45381;-55
2022/06/15 01:49:21;;;;;;;;;6.00;5.00;;;;;24.27;44.07;100985.13;5120718;27;46334;-55
2022/06/15 01:51:47;;;;;;;;;5.25;4.25;;;;;24.26;44.26;100983.44;5106920;27;45336;-55
2022/06/15 01:54:23;;;;;;;;;4.75;4.75;;;;;24.26;43.72;100986.97;5111335;27;45657;-55
2022/06/15 01:56:50;;;;;;;;;3.75;3.75;;;;;24.26;44.35;100983.44;5110547;27;45666;-55
2022/06/15 01:59:43;;;;;;;;;6.75;5.00;;;;;24.24;43.86;100975.53;5109700;27;46419;-54
2022/06/15 02:02:12;;;;;;;;;5.00;5.00;;;;;24.24;44.18;100972.88;5109400;27;45214;-56
2022/06/15 02:05:18;;;;;;;;;6.00;4.25;;;;;24.24;44.01;100970.19;5116315;27;45316;-56
2022/06/15 02:07:49;;;;;;;;;4.75;4.25;;;;;24.23;43.94;100973.81;5058003;28;45473;-56
2022/06/15 02:10:25;;;;;;;;;4.00;4.00;;;;;24.23;44.11;100975.66;5100603;27;46788;-54
2022/06/15 02:13:11;;;;;;;;;4.50;4.50;;;;;24.22;43.88;100971.28;5113630;27;45353;-56
2022/06/15 02:15:42;;;;;;;;;4.00;4.00;;;;;24.21;44.03;100966.91;5103476;27;45534;-56
2022/06/15 02:18:10;;;;;;;;;5.50;4.25;;;;;24.20;44.16;100963.38;5107819;27;45462;-56
2022/06/15 02:20:41;;;;;;;;;4.00;3.50;;;;;24.20;44.14;100968.72;5113889;27;45565;-55
2022/06/15 02:23:10;;;;;;;;;5.00;4.00;;;;;24.20;44.18;100967.88;5108887;27;45238;-55
2022/06/15 02:25:38;;;;;;;;;4.75;4.50;;;;;24.19;43.72;100967.03;5113544;27;45544;-55
2022/06/15 02:28:04;;;;;;;;;4.00;4.00;;;;;24.18;43.78;100962.66;5111795;27;46209;-55
2022/06/15 02:30:30;;;;;;;;;4.00;4.00;;;;;24.17;44.05;100966.31;5107100;27;45443;-56
2022/06/15 02:32:57;;;;;;;;;4.00;4.00;;;;;24.17;44.28;100963.63;5109047;27;45466;-55
2022/06/15 02:35:22;;;;;;;;;6.00;5.50;;;;;24.16;44.42;100953.91;5113518;27;45396;-55
2022/06/15 02:37:50;;;;;;;;;3.25;2.25;;;;;24.15;44.25;100960.25;5110826;27;45465;-55
2022/06/15 02:40:20;;;;;;;;;4.25;4.25;;;;;24.16;44.39;100958.41;5114512;27;47171;-55
2022/06/15 02:42:46;;;;;;;;;5.00;4.00;;;;;24.14;44.37;100955.84;5112989;27;45231;-55
2022/06/15 02:45:18;;;;;;;;;7.25;3.25;;;;;24.15;44.15;100957.56;5115119;27;45373;-56
2022/06/15 02:47:44;;;;;;;;;6.25;4.50;;;;;24.14;43.90;100961.22;5116019;27;45579;-55
2022/06/15 02:50:11;;;;;;;;;5.75;4.00;;;;;24.14;43.95;100953.19;5117165;27;55122;-56
2022/06/15 02:52:44;;;;;;;;;3.00;3.00;;;;;24.13;44.07;100954.16;5111122;27;45271;-55
2022/06/15 02:55:10;;;;;;;;;7.75;5.75;;;;;24.13;43.87;100946.13;5112397;27;45512;-55
2022/06/15 02:57:52;;;;;;;;;4.25;4.25;;;;;24.12;44.24;100951.63;5108900;27;45638;-55
2022/06/15 03:00:20;;;;;;;;;6.50;5.00;;;;;24.11;43.82;100953.44;5115303;27;46051;-56
2022/06/15 03:02:45;;;;;;;;;4.25;4.00;;;;;24.11;44.21;100952.59;5112310;27;45548;-55
2022/06/15 03:05:11;;;;;;;;;5.00;5.00;;;;;24.10;44.43;100953.53;5105370;27;69197;-56
2022/06/15 03:07:37;;;;;;;;;5.75;3.25;;;;;24.09;44.21;100952.69;5107507;27;45719;-55
2022/06/15 03:10:03;;;;;;;;;5.25;5.25;;;;;24.08;44.54;100953.66;5114132;27;45984;-55
2022/06/15 03:12:28;;;;;;;;;6.50;4.00;;;;;24.07;44.10;100957.31;5108238;27;45478;-55
2022/06/15 03:14:53;;;;;;;;;6.25;4.75;;;;;24.05;43.93;100960.13;5104041;27;45501;-55
2022/06/15 03:17:19;;;;;;;;;5.00;4.00;;;;;24.05;44.26;100960.13;5103263;27;45433;-56
2022/06/15 03:19:44;;;;;;;;;3.25;3.25;;;;;24.04;44.45;100954.91;5110316;27;75111;-55
2022/06/15 03:22:10;;;;;;;;;4.00;4.00;;;;;24.03;44.24;100959.41;5106859;27;45277;-55
2022/06/15 03:24:35;;;;;;;;;4.00;3.75;;;;;24.01;44.19;100961.34;5116964;27;45438;-56
2022/06/15 03:27:00;;;;;;;;;4.25;3.50;;;;;24.01;44.31;100963.16;5115957;27;69948;-55
2022/06/15 03:29:26;;;;;;;;;5.25;4.25;;;;;24.00;44.31;100964.97;5108036;27;46577;-54
2022/06/15 03:31:51;;;;;;;;;4.00;2.75;;;;;23.99;44.50;100963.31;5101094;27;45436;-55
2022/06/15 03:34:16;;;;;;;;;4.00;4.00;;;;;24.00;44.60;100967.66;5112967;27;69364;-56
2022/06/15 03:36:42;;;;;;;;;5.75;5.25;;;;;23.99;43.98;100967.78;5108435;27;72057;-56
2022/06/15 03:39:07;;;;;;;;;5.00;5.00;;;;;23.96;44.11;100963.53;5116813;27;71987;-56
2022/06/15 03:41:32;;;;;;;;;4.50;4.25;;;;;23.99;44.19;100974.00;5106107;27;64769;-56
2022/06/15 03:43:58;;;;;;;;;4.25;3.75;;;;;23.98;44.38;100966.94;5111542;27;64498;-54
2022/06/15 03:46:23;;;;;;;;;4.25;3.50;;;;;23.97;44.14;100970.56;5104013;27;66293;-55
2022/06/15 03:48:49;;;;;;;;;4.75;4.75;;;;;23.97;44.50;100972.41;5115655;27;46126;-54
2022/06/15 03:51:14;;;;;;;;;6.00;5.00;;;;;23.96;44.30;100966.22;5109720;27;68335;-55
2022/06/15 03:53:40;;;;;;;;;6.25;4.25;;;;;23.97;44.43;100964.38;5116015;27;45443;-53
2022/06/15 03:56:05;;;;;;;;;5.00;5.00;;;;;23.96;44.28;100968.03;5107698;27;57263;-56
2022/06/15 03:58:30;;;;;;;;;4.00;3.75;;;;;23.95;44.19;100958.31;5116608;27;46812;-56
2022/06/15 04:00:56;;;;;;;;;5.25;5.25;;;;;23.95;44.46;100963.66;5112755;27;67192;-55
2022/06/15 04:03:21;;;;;;;;;6.75;5.00;;;;;23.94;44.52;100960.16;5107390;27;45375;-54
2022/06/15 04:05:52;;;;;;;;;5.00;5.00;;;;;23.94;44.58;100959.28;5107598;27;72128;-56
2022/06/15 04:08:35;;;;;;;;;4.50;4.25;;;;;23.93;44.35;100961.09;5115826;27;47022;-56
2022/06/15 04:11:58;;;;;;;;;4.00;4.00;;;;;23.91;44.13;100956.88;5106765;27;45852;-56
2022/06/15 04:13:58;;;;;;;;;4.25;4.00;;;;;23.92;44.43;100962.09;5109190;27;45436;-55
2022/06/15 04:16:24;;;;;;;;;5.00;4.25;;;;;23.92;44.47;100963.91;5110966;27;45464;-56
2022/06/15 04:18:49;;;;;;;;;3.75;3.50;;;;;23.93;44.37;100981.66;5112464;27;65995;-55
2022/06/15 04:21:14;;;;;;;;;5.00;5.00;;;;;23.92;44.27;100958.56;5110589;27;73307;-56
2022/06/15 04:23:40;;;;;;;;;5.00;5.00;;;;;23.92;44.68;100961.22;5114181;27;61769;-55
2022/06/15 04:26:05;;;;;;;;;4.00;4.00;;;;;23.91;44.46;100963.06;5112531;27;71658;-55
2022/06/15 04:28:32;;;;;;;;;5.75;3.25;;;;;23.91;44.60;100959.53;5112411;27;50998;-55
2022/06/15 04:30:57;;;;;;;;;5.75;5.25;;;;;23.90;44.49;100960.50;5108063;27;45283;-55
2022/06/15 04:33:24;;;;;;;;;8.75;5.50;;;;;23.90;44.29;100966.69;5112176;27;60833;-55
2022/06/15 04:35:50;;;;;;;;;4.00;3.00;;;;;23.88;44.53;100973.97;5111279;27;45865;-55
2022/06/15 04:38:15;;;;;;;;;4.75;3.75;;;;;23.90;44.41;100972.03;5115818;27;46057;-56
2022/06/15 04:40:41;;;;;;;;;6.00;4.75;;;;;23.90;44.53;100974.72;5108662;27;45635;-55
2022/06/15 04:43:07;;;;;;;;;5.00;4.00;;;;;23.88;44.46;100972.16;5113313;27;45613;-55
2022/06/15 04:45:33;;;;;;;;;4.25;4.25;;;;;23.90;44.42;100973.88;5111080;27;45447;-56
2022/06/15 04:47:58;;;;;;;;;4.50;4.25;;;;;23.88;44.30;100968.63;5111897;27;46425;-56
2022/06/15 04:50:24;;;;;;;;;7.50;4.00;;;;;23.88;44.47;100973.97;5105389;27;45409;-55
2022/06/15 04:52:49;;;;;;;;;5.75;5.75;;;;;23.87;44.39;100977.66;5100716;27;45510;-56
2022/06/15 04:55:18;;;;;;;;;4.00;3.50;;;;;23.87;44.59;100983.00;5104619;27;46312;-56
2022/06/15 04:57:44;;;;;;;;;4.50;2.50;;;;;23.87;44.42;100975.81;5111032;27;46145;-54
2022/06/15 05:00:14;;;;;;;;;5.00;4.00;;;;;23.86;44.28;100975.94;5111023;27;45522;-56
2022/06/15 05:02:39;;;;;;;;;4.75;4.00;;;;;23.86;44.57;100981.28;5110033;27;45455;-56
2022/06/15 05:05:05;;;;;;;;;5.25;4.00;;;;;23.87;44.70;100983.00;5113876;27;45517;-57
2022/06/15 05:07:31;;;;;;;;;6.00;4.25;;;;;23.87;44.66;100996.34;5103345;27;45987;-56
2022/06/15 05:09:56;;;;;;;;;3.00;3.00;;;;;23.86;44.42;100991.97;5108470;27;45233;-56
2022/06/15 05:12:22;;;;;;;;;5.00;5.00;;;;;23.86;44.16;100998.16;5108612;27;46744;-56
2022/06/15 05:14:47;;;;;;;;;5.75;4.50;;;;;23.86;44.61;100987.47;5110173;27;45382;-56
2022/06/15 05:17:18;;;;;;;;;4.25;4.25;;;;;23.86;44.61;100984.78;5111636;27;46302;-56
2022/06/15 05:19:43;;;;;;;;;5.25;5.00;;;;;23.87;44.35;100986.50;5114145;27;45457;-55
2022/06/15 05:22:09;;;;;;;;;5.00;5.00;;;;;23.87;44.26;100983.84;5104607;27;45761;-56
2022/06/15 05:24:35;;;;;;;;;6.25;4.50;;;;;23.87;44.45;100981.16;5120177;27;45448;-56
2022/06/15 05:27:01;;;;;;;;;6.25;4.50;;;;;23.88;44.50;100982.84;5107698;27;45312;-55
2022/06/15 05:29:27;;;;;;;;;6.50;5.00;;;;;23.87;44.45;100981.16;5112565;27;45565;-56
2022/06/15 05:31:53;;;;;;;;;5.00;4.00;;;;;23.87;44.50;100981.16;5109681;27;45460;-56
2022/06/15 05:34:19;;;;;;;;;5.00;5.00;;;;;23.87;44.37;100981.16;5119154;27;45450;-55
2022/06/15 05:36:44;;;;;;;;;6.25;4.00;;;;;23.87;44.12;100991.00;5106231;27;45476;-56
2022/06/15 05:39:10;;;;;;;;;8.00;4.75;;;;;23.88;44.58;100987.34;5123003;27;45232;-56
2022/06/15 05:41:35;;;;;;;;;5.00;5.00;;;;;23.88;44.54;100990.88;5106895;27;45605;-56
2022/06/15 05:44:05;;;;;;;;;5.25;5.00;;;;;23.91;44.74;100988.94;5113735;27;66851;-55
2022/06/15 05:46:33;;;;;;;;;5.25;5.25;;;;;23.91;44.48;100994.28;5108841;27;45434;-53
2022/06/15 05:49:00;;;;;;;;;7.75;7.00;;;;;23.92;44.65;100990.63;5111016;27;45899;-55
2022/06/15 05:51:26;;;;;;;;;10.50;8.25;;;;;23.93;44.17;100987.00;5112522;27;45344;-55
2022/06/15 05:53:52;;;;;;;;;8.00;5.50;;;;;23.95;44.41;100972.53;5104139;27;45375;-55
2022/06/15 05:56:18;;;;;;;;;8.00;8.00;;;;;23.98;43.29;100980.31;5112912;27;46067;-55
2022/06/15 05:58:43;;;;;;;;;10.75;8.75;;;;;24.00;43.62;100988.22;5112093;27;45541;-54
2022/06/15 06:01:32;;;;;;;;;10.50;9.75;;;;;24.01;42.80;100984.53;5110195;27;45526;-54
2022/06/15 06:03:58;;;;;;;;;6.00;6.00;;;;;24.01;43.50;100985.41;5114176;27;45297;-52
2022/06/15 06:06:24;;;;;;;;;6.25;6.25;;;;;24.05;42.93;100996.72;5109776;27;48547;-52
2022/06/15 06:08:49;;;;;;;;;9.50;7.25;;;;;24.06;43.32;101001.06;5115015;27;45660;-54
2022/06/15 06:11:15;;;;;;;;;7.50;7.50;;;;;24.07;42.92;101000.94;5107708;27;67323;-55
2022/06/15 06:13:40;;;;;;;;;13.50;8.00;;;;;24.09;42.33;101003.50;5113229;27;45334;-55
2022/06/15 06:16:06;;;;;;;;;9.75;6.50;;;;;24.07;42.83;100995.59;5109428;27;45448;-55
2022/06/15 06:18:32;;;;;;;;;9.50;9.00;;;;;24.07;43.14;100992.09;5115215;27;45373;-55
2022/06/15 06:20:57;;;;;;;;;10.25;6.75;;;;;24.06;43.17;100993.03;5113491;27;45415;-54
2022/06/15 06:23:23;;;;;;;;;8.00;7.00;;;;;24.05;43.06;100994.88;5114128;27;45488;-55
2022/06/15 06:25:50;;;;;;;;;7.00;7.00;;;;;24.01;43.00;100984.53;5108165;27;72442;-54
2022/06/15 06:28:38;;;;;;;;;8.00;6.00;;;;;24.02;43.23;100981.75;5109343;27;45836;-53
2022/06/15 06:31:04;;;;;;;;;5.75;5.75;;;;;24.00;43.04;100982.84;5107160;27;45395;-53
2022/06/15 06:33:32;;;;;;;;;8.00;6.50;;;;;23.99;42.97;100981.16;5107324;27;46248;-50
2022/06/15 06:36:01;;;;;;;;;8.50;6.50;;;;;23.99;43.14;100978.47;5112709;27;45459;-54
2022/06/15 06:38:27;;;;;;;;;5.25;5.25;;;;;23.98;43.49;100988.31;5102994;27;45572;-54
2022/06/15 06:40:53;;;;;;;;;7.25;7.00;;;;;23.99;43.28;100995.38;5107297;27;67298;-54
2022/06/15 06:43:19;;;;;;;;;7.00;5.50;;;;;23.99;43.42;100998.06;5112072;27;45389;-54
2022/06/15 06:45:45;;;;;;;;;7.50;7.00;;;;;23.99;43.66;100999.84;5108336;27;45768;-51
2022/06/15 06:48:10;;;;;;;;;7.25;6.25;;;;;24.00;43.71;100997.06;5112800;27;48814;-53
2022/06/15 06:50:37;;;;;;;;;8.75;5.25;;;;;24.01;43.04;101000.59;5108800;27;68320;-52
2022/06/15 06:53:03;;;;;;;;;5.50;5.50;;;;;24.00;43.46;100998.91;5113691;27;45572;-53
2022/06/15 06:55:29;;;;;;;;;7.50;6.25;;;;;24.02;43.26;101007.63;5111215;27;46449;-53
2022/06/15 06:57:56;;;;;;;;;5.25;5.25;;;;;24.02;43.80;100999.63;5107799;27;47096;-53
2022/06/15 07:00:21;;;;;;;;;7.00;6.00;;;;;24.02;43.17;101008.47;5116945;27;45445;-53
2022/06/15 07:02:47;;;;;;;;;7.75;6.00;;;;;24.05;43.17;100999.38;5121400;27;45419;-54
2022/06/15 07:05:12;;;;;;;;;7.00;6.00;;;;;24.03;43.53;100996.84;5115012;27;74680;-53
2022/06/15 07:07:37;;;;;;;;;8.25;5.75;;;;;24.04;43.48;100998.50;5116687;27;66180;-53
2022/06/15 07:10:03;;;;;;;;;7.75;6.75;;;;;24.06;43.13;101004.63;5120110;27;57232;-53
2022/06/15 07:12:28;;;;;;;;;6.50;5.00;;;;;24.06;43.47;101004.63;5108513;27;45318;-54
2022/06/15 07:14:53;;;;;;;;;7.25;6.25;;;;;24.07;43.74;100992.09;5107671;27;72687;-55
2022/06/15 07:17:19;;;;;;;;;7.50;6.75;;;;;24.08;43.72;101001.78;5110722;27;64286;-50
2022/06/15 07:19:44;;;;;;;;;8.50;6.00;;;;;24.08;43.66;101004.47;5114699;27;45459;-54
2022/06/15 07:22:09;;;;;;;;;8.00;7.00;;;;;24.09;43.44;100997.31;5105313;27;45246;-54
2022/06/15 07:24:35;;;;;;;;;8.25;5.75;;;;;24.11;43.62;101006.06;5117407;27;69933;-51
2022/06/15 07:27:00;;;;;;;;;6.25;5.25;;;;;24.11;43.51;101000.72;5111060;27;73258;-51
2022/06/15 07:29:26;;;;;;;;;6.25;5.75;;;;;24.11;43.21;101001.56;5123874;27;64544;-53
2022/06/15 07:31:54;;;;;;;;;7.50;5.75;;;;;24.13;43.50;100998.75;5113780;27;68431;-54
2022/06/15 07:34:20;;;;;;;;;6.00;5.00;;;;;24.13;43.25;101015.66;5100287;27;47081;-52
2022/06/15 07:36:46;;;;;;;;;6.00;5.25;;;;;24.13;43.36;101012.97;5104430;27;45230;-52
2022/06/15 07:39:14;;;;;;;;;6.00;4.75;;;;;24.15;43.40;101012.84;5110651;27;45260;-53
2022/06/15 07:41:40;;;;;;;;;8.00;5.00;;;;;24.17;43.47;101021.59;5104469;27;45589;-54
2022/06/15 07:44:05;;;;;;;;;6.75;5.25;;;;;24.18;43.18;101017.97;5104714;27;47446;-53
2022/06/15 07:46:31;;;;;;;;;6.00;6.00;;;;;24.19;43.32;101019.69;5105188;27;45296;-55
2022/06/15 07:51:44;;;;;;;;;6.25;5.50;;;;;24.21;43.43;101009.72;5112202;27;45628;-54
2022/06/15 07:54:12;;;;;;;;;9.75;6.25;;;;;24.21;43.45;101005.19;5114864;27;46225;-54
2022/06/15 07:56:39;;;;;;;;;5.00;5.00;;;;;24.24;43.40;101018.34;5109893;27;45427;-55
2022/06/15 07:59:04;;;;;;;;;4.50;4.50;;;;;24.25;43.03;101005.81;5119755;27;45293;-53
2022/06/15 08:01:30;;;;;;;;;7.50;6.50;;;;;24.30;43.51;101013.47;5103626;27;60385;-54
2022/06/15 08:03:55;;;;;;;;;9.00;7.50;;;;;24.31;43.20;101008.00;5102758;27;74514;-53
2022/06/15 08:06:21;;;;;;;;;8.00;6.75;;;;;24.34;43.38;101006.88;5105894;27;45488;-52
2022/06/15 08:08:46;;;;;;;;;8.00;5.50;;;;;24.35;42.99;101005.94;5119611;27;45375;-53
2022/06/15 08:11:12;;;;;;;;;8.00;7.00;;;;;24.37;42.88;101010.16;5110877;27;45319;-53
2022/06/15 08:13:38;;;;;;;;;7.00;7.00;;;;;24.39;43.09;101010.03;5118125;27;45908;-50
2022/06/15 08:16:04;;;;;;;;;7.50;7.25;;;;;24.41;43.16;101005.41;5103700;27;45623;-53
2022/06/15 08:18:32;;;;;;;;;7.25;5.00;;;;;24.41;42.93;101013.44;5107092;27;45565;-53
2022/06/15 08:21:02;;;;;;;;;6.25;5.00;;;;;24.41;42.98;101008.94;5106392;27;45627;-55
2022/06/15 08:23:31;;;;;;;;;5.25;5.00;;;;;24.43;42.95;101007.00;5118622;27;45494;-54
2022/06/15 08:25:58;;;;;;;;;6.50;6.00;;;;;24.43;43.20;101007.00;5113553;27;45300;-54
2022/06/15 08:28:28;;;;;;;;;5.50;5.50;;;;;24.45;43.26;101001.50;5111147;27;46297;-55
2022/06/15 08:30:54;;;;;;;;;6.50;6.25;;;;;24.46;43.03;101000.53;5108138;27;45475;-55
2022/06/15 08:33:20;;;;;;;;;6.75;5.75;;;;;24.47;42.88;100998.69;5112381;27;45971;-54
2022/06/15 08:35:47;;;;;;;;;9.50;5.75;;;;;24.48;43.05;100995.06;5106879;27;45551;-54
2022/06/15 08:38:15;;;;;;;;;10.50;5.00;;;;;24.48;43.02;100990.56;5112253;27;45323;-53
2022/06/15 08:40:50;;;;;;;;;9.25;6.25;;;;;24.49;42.63;100994.94;5106971;27;45402;-54
2022/06/15 08:43:33;;;;;;;;;7.00;5.00;;;;;24.50;43.18;100999.31;5113346;27;46055;-55
2022/06/15 08:46:11;;;;;;;;;7.00;6.75;;;;;24.51;42.90;100992.16;5106603;27;45374;-55
2022/06/15 08:48:50;;;;;;;;;5.25;5.25;;;;;24.51;42.86;100998.34;5121057;27;45803;-53
2022/06/15 08:51:25;;;;;;;;;9.00;6.00;;;;;24.52;42.97;100989.31;5110318;27;45245;-53
2022/06/15 08:53:58;;;;;;;;;9.50;7.00;;;;;24.53;42.84;100995.53;5122654;27;46565;-52
2022/06/15 08:56:26;;;;;;;;;8.25;6.00;;;;;24.53;42.66;100995.53;5106417;27;46026;-51
2022/06/15 08:58:51;;;;;;;;;5.50;4.75;;;;;24.54;42.91;100991.91;5109011;27;45282;-52
2022/06/15 09:01:38;;;;;;;;;10.00;5.25;;;;;24.55;42.98;100998.97;5114201;27;45173;-53
2022/06/15 09:04:12;;;;;;;;;7.50;6.00;;;;;24.56;42.85;100995.31;5101032;27;46319;-54
2022/06/15 09:07:01;;;;;;;;;10.25;7.00;;;;;24.55;43.22;100989.09;5109691;27;45503;-53
2022/06/15 09:10:01;;;;;;;;;6.75;5.25;;;;;24.57;43.07;100991.66;5102322;27;46209;-54
2022/06/15 09:15:32;;;;;;;;;6.25;6.00;;;;;24.58;43.06;100996.88;5115850;27;45642;-54
2022/06/15 09:18:01;;;;;;;;;6.50;6.50;;;;;24.58;42.74;100996.88;5117677;27;45262;-54
2022/06/15 09:20:29;;;;;;;;;4.50;4.50;;;;;24.59;42.95;101000.41;5117132;27;45329;-53
2022/06/15 09:23:23;;;;;;;;;5.50;5.50;;;;;24.60;43.05;100996.78;5116886;27;45420;-53
2022/06/15 09:26:15;;;;;;;;;6.00;6.00;;;;;24.60;42.72;101000.28;5111102;27;45461;-54
2022/06/15 09:28:56;;;;;;;;;7.00;4.75;;;;;24.61;42.80;100998.44;5115202;27;45603;-51
2022/06/15 09:31:25;;;;;;;;;6.00;4.00;;;;;24.63;42.71;100996.53;5109313;27;45327;-54
2022/06/15 09:34:03;;;;;;;;;6.75;6.00;;;;;24.63;42.64;101002.72;5119695;27;45364;-53
2022/06/15 09:36:37;;;;;;;;;6.50;6.50;;;;;24.63;42.77;100996.53;5109497;27;45414;-54
2022/06/15 09:39:03;;;;;;;;;5.50;5.50;;;;;24.66;42.73;100998.94;5112083;27;45363;-52
2022/06/15 09:41:44;;;;;;;;;7.00;4.75;;;;;24.67;42.77;101000.63;5116503;27;45429;-53
2022/06/15 09:44:19;;;;;;;;;6.50;4.75;;;;;24.70;42.77;101003.06;5119562;27;45442;-55
2022/06/15 09:47:15;;;;;;;;;6.00;5.00;;;;;24.72;42.84;100997.56;5110978;27;45690;-54
2022/06/15 09:49:43;;;;;;;;;7.00;3.75;;;;;24.74;42.81;101003.66;5118772;27;45513;-54
2022/06/15 09:52:15;;;;;;;;;4.00;4.00;;;;;24.74;42.63;100987.59;5109622;27;45303;-55
2022/06/15 09:54:46;;;;;;;;;5.00;5.00;;;;;24.76;42.70;100996.34;5105516;27;45347;-55
2022/06/15 09:57:12;;;;;;;;;7.75;6.50;;;;;24.78;42.56;100995.22;5113984;27;45445;-55
2022/06/15 09:59:37;;;;;;;;;5.50;5.50;;;;;24.80;42.88;100981.72;5103169;27;45457;-55
2022/06/15 10:02:06;;;;;;;;;7.75;4.75;;;;;24.84;42.60;100985.84;5103586;27;53215;-55
2022/06/15 10:04:34;;;;;;;;;6.75;6.75;;;;;24.87;43.04;100982.06;5109202;27;45619;-55
2022/06/15 10:07:11;;;;;;;;;10.00;7.00;;;;;24.91;42.68;100986.19;5105383;27;46159;-55
2022/06/15 10:09:40;;;;;;;;;5.25;5.00;;;;;24.92;42.74;100988.72;5102345;27;45171;-55
2022/06/15 10:15:18;;;;;;;;;5.00;5.00;;;;;24.99;42.61;100986.41;5107655;27;45346;-53
2022/06/15 10:17:50;;;;;;;;;4.75;4.75;;;;;25.04;42.47;100996.69;5103287;27;46191;-53
2022/06/15 10:20:24;;;;;;;;;4.75;4.25;;;;;25.06;42.53;100995.63;5110410;27;45610;-53
2022/06/15 10:22:53;;;;;;;;;5.25;4.00;;;;;25.12;42.49;100989.72;5113740;27;45570;-52
2022/06/15 10:25:18;;;;;;;;;5.00;5.00;;;;;25.17;42.43;100994.69;5108770;27;45463;-53
2022/06/15 10:27:44;;;;;;;;;5.00;5.00;;;;;25.22;42.17;101002.34;5107633;27;45400;-54
2022/06/15 10:30:12;;;;;;;;;9.00;5.75;;;;;25.26;42.20;100996.63;5105881;27;49109;-51
2022/06/15 10:32:57;;;;;;;;;6.50;6.50;;;;;25.32;42.10;100997.94;5112203;27;45543;-54
2022/06/15 10:35:22;;;;;;;;;4.75;4.00;;;;;25.35;41.69;101003.03;5107798;27;45358;-48
2022/06/15 10:38:00;;;;;;;;;5.75;5.75;;;;;25.41;42.02;101004.34;5111925;27;46285;-51
2022/06/15 10:40:36;;;;;;;;;6.75;5.25;;;;;25.45;42.03;101001.28;5110691;27;45369;-49
2022/06/15 10:43:29;;;;;;;;;4.75;4.75;;;;;25.47;41.75;100999.31;5104069;27;45573;-52
2022/06/15 10:45:58;;;;;;;;;5.00;3.75;;;;;25.51;42.00;100999.88;5108794;27;45603;-51
2022/06/15 10:48:45;;;;;;;;;5.25;5.00;;;;;25.53;42.17;100998.78;5109935;27;45498;-55
2022/06/15 10:51:16;;;;;;;;;7.50;7.00;;;;;25.56;42.08;100994.97;5108715;27;45972;-54
2022/06/15 10:53:48;;;;;;;;;7.50;6.00;;;;;25.59;42.38;100997.41;5112462;27;45451;-54
2022/06/15 11:02:29;;;;;;;;;6.00;5.00;;;;;25.67;42.09;100996.72;5113009;27;45470;-53
2022/06/15 11:05:06;;;;;;;;;5.25;5.25;;;;;25.69;41.89;100987.59;5114237;27;45472;-52
2022/06/15 11:08:07;;;;;;;;;5.00;3.25;;;;;25.72;41.58;100989.97;5110834;27;45609;-55
2022/06/15 11:10:40;;;;;;;;;5.75;5.50;;;;;25.75;41.83;100992.41;5072279;27;47024;-54
2022/06/15 11:13:40;;;;;;;;;4.00;4.00;;;;;25.79;42.04;100994.81;5103538;27;45475;-55
2022/06/15 11:19:14;;;;;;;;;5.25;5.00;;;;;25.82;41.37;100995.41;5117619;27;45251;-53
2022/06/15 11:21:46;;;;;;;;;10.00;6.50;;;;;25.85;41.45;100991.59;5114309;27;46100;-56
2022/06/15 11:24:22;;;;;;;;;8.50;7.00;;;;;25.86;41.58;100994.13;5106821;27;45413;-56
2022/06/15 11:27:24;;;;;;;;;6.25;6.00;;;;;25.89;41.59;100985.00;5111531;27;45475;-56
2022/06/15 11:30:22;;;;;;;;;6.00;6.00;;;;;25.90;41.46;100992.88;5103677;27;45441;-56
2022/06/15 11:33:07;;;;;;;;;8.00;7.00;;;;;25.91;41.69;100983.03;5102276;27;46384;-57
2022/06/15 11:35:32;;;;;;;;;5.75;5.25;;;;;25.92;41.52;100985.56;5110958;27;46066;-57
2022/06/15 11:38:16;;;;;;;;;7.00;5.50;;;;;25.94;41.48;100991.69;5109799;27;46098;-56
2022/06/15 11:40:52;;;;;;;;;8.25;5.50;;;;;25.94;41.51;100989.00;5108612;27;45432;-55
2022/06/15 11:43:31;;;;;;;;;7.25;4.50;;;;;25.96;41.27;100980.81;5109126;27;47291;-56
2022/06/15 11:46:09;;;;;;;;;9.75;7.00;;;;;25.97;41.21;100979.81;5096601;27;45463;-56
2022/06/15 11:49:05;;;;;;;;;10.00;8.50;;;;;26.00;41.32;100984.06;5111691;27;45431;-55
2022/06/15 11:51:58;;;;;;;;;9.50;7.25;;;;;26.00;41.27;100981.41;5108974;27;45441;-56
2022/06/15 11:54:27;;;;;;;;;6.75;6.25;;;;;26.03;41.51;100986.47;5116894;27;46168;-54
2022/06/15 11:56:58;;;;;;;;;10.25;8.00;;;;;26.04;41.07;100991.69;5109902;27;45840;-56
2022/06/15 11:59:42;;;;;;;;;11.25;8.00;;;;;26.04;41.64;100991.69;5102621;27;45648;-56
2022/06/15 12:02:18;;;;;;;;;11.50;7.75;;;;;26.05;41.59;100995.25;5106525;27;45381;-56
2022/06/15 12:04:49;;;;;;;;;6.00;6.00;;;;;26.05;41.19;100988.03;5101728;27;45199;-56
2022/06/15 12:07:30;;;;;;;;;9.00;6.00;;;;;26.05;41.41;100993.41;5119008;27;45767;-55
2022/06/15 12:10:13;;;;;;;;;6.00;5.75;;;;;26.05;41.22;101001.44;5108231;27;45199;-55
2022/06/15 12:13:07;;;;;;;;;10.25;8.00;;;;;26.05;41.23;100995.25;5112734;27;45270;-55
2022/06/15 12:15:45;;;;;;;;;5.25;5.25;;;;;26.06;41.51;100987.03;5110821;27;46257;-56